sensor_id;sensor_type;location;lat;lon;timestamp;temperature;humidity
13496;DHT22;6820;49.374;8.452;2022-12-24T00:02:20;12.79;99.99
13496;DHT22;6820;49.374;8.452;2022-12-24T00:06:22;12.84;99.99
13496;DHT22;6820;49.374;8.452;2022-12-24T00:10:24;12.87;99.99
13496;DHT22;6820;49.374;8.452;2022-12-24T00:14:26;12.89;99.99
13496;DHT22;6820;49.374;8.452;2022-12-24T00:18:27;12.88;99.99
13496;DHT22;6820;49.374;8.452;2022-12-24T00:22:29;12.81;99.99
13496;DHT22;6820;49.374;8.452;2022-12-24T00:26:31;12.76;99.99
13496;DHT22;6820;49.374;8.452;2022-12-24T00:30:34;12.67;99.99
13496;DHT22;6820;49.374;8.452;2022-12-24T00:34:38;12.66;99.99
13496;DHT22;6820;49.374;8.452;2022-12-24T00:38:39;12.59;99.99
13496;DHT22;6820;49.374;8.452;2022-12-24T00:42:41;12.61;99.99
13496;DHT22;6820;49.374;8.452;2022-12-24T00:46:43;12.54;99.99
13496;DHT22;6820;49.374;8.452;2022-12-24T00:50:44;12.51;99.99
13496;DHT22;6820;49.374;8.452;2022-12-24T00:54:46;12.49;99.99
13496;DHT22;6820;49.374;8.452;2022-12-24T00:58:48;12.51;99.99
13496;DHT22;6820;49.374;8.452;2022-12-24T01:02:50;12.49;99.99
13496;DHT22;6820;49.374;8.452;2022-12-24T01:06:52;12.46;99.99
13496;DHT22;6820;49.374;8.452;2022-12-24T01:10:53;12.41;99.99
13496;DHT22;6820;49.374;8.452;2022-12-24T01:14:55;12.44;99.99
13496;DHT22;6820;49.374;8.452;2022-12-24T01:18:57;12.49;99.99
13496;DHT22;6820;49.374;8.452;2022-12-24T01:22:58;12.49;99.99
13496;DHT22;6820;49.374;8.452;2022-12-24T01:27:00;12.46;99.99
13496;DHT22;6820;49.374;8.452;2022-12-24T01:31:02;12.43;99.99
13496;DHT22;6820;49.374;8.452;2022-12-24T01:35:10;12.48;99.99
13496;DHT22;6820;49.374;8.452;2022-12-24T01:39:12;12.43;99.99
13496;DHT22;6820;49.374;8.452;2022-12-24T01:43:17;12.38;99.99
13496;DHT22;6820;49.374;8.452;2022-12-24T01:47:24;12.31;99.99
13496;DHT22;6820;49.374;8.452;2022-12-24T01:51:32;12.25;99.99
13496;DHT22;6820;49.374;8.452;2022-12-24T01:55:38;12.21;99.99
13496;DHT22;6820;49.374;8.452;2022-12-24T01:59:40;12.18;99.99
13496;DHT22;6820;49.374;8.452;2022-12-24T02:03:44;12.15;99.99
13496;DHT22;6820;49.374;8.452;2022-12-24T02:07:46;12.12;99.99
13496;DHT22;6820;49.374;8.452;2022-12-24T02:11:48;12.12;99.99
13496;DHT22;6820;49.374;8.452;2022-12-24T02:16:02;12.29;99.99
13496;DHT22;6820;49.374;8.452;2022-12-24T02:29:32;12.25;99.99
13496;DHT22;6820;49.374;8.452;2022-12-24T02:38:36;12.12;99.99
13496;DHT22;6820;49.374;8.452;2022-12-24T02:42:40;12.13;99.99
13496;DHT22;6820;49.374;8.452;2022-12-24T02:46:43;12.15;99.99
13496;DHT22;6820;49.374;8.452;2022-12-24T02:50:53;12.13;99.99
13496;DHT22;6820;49.374;8.452;2022-12-24T02:55:00;12.11;99.99
13496;DHT22;6820;49.374;8.452;2022-12-24T03:12:09;12.00;99.99
13496;DHT22;6820;49.374;8.452;2022-12-24T03:16:16;11.94;99.99
13496;DHT22;6820;49.374;8.452;2022-12-24T03:20:34;11.85;99.99
13496;DHT22;6820;49.374;8.452;2022-12-24T03:24:38;11.78;99.99
13496;DHT22;6820;49.374;8.452;2022-12-24T03:28:40;11.72;99.99
13496;DHT22;6820;49.374;8.452;2022-12-24T03:32:43;11.69;99.99
13496;DHT22;6820;49.374;8.452;2022-12-24T03:36:46;11.67;99.99
13496;DHT22;6820;49.374;8.452;2022-12-24T03:40:49;11.64;99.99
13496;DHT22;6820;49.374;8.452;2022-12-24T03:44:51;11.62;99.99
13496;DHT22;6820;49.374;8.452;2022-12-24T03:48:53;11.63;99.99
13496;DHT22;6820;49.374;8.452;2022-12-24T03:52:55;11.59;99.99
13496;DHT22;6820;49.374;8.452;2022-12-24T03:56:56;11.62;99.99
13496;DHT22;6820;49.374;8.452;2022-12-24T04:00:58;11.60;99.99
13496;DHT22;6820;49.374;8.452;2022-12-24T04:05:00;11.59;99.99
13496;DHT22;6820;49.374;8.452;2022-12-24T04:09:01;11.60;99.99
13496;DHT22;6820;49.374;8.452;2022-12-24T04:13:05;11.59;99.99
13496;DHT22;6820;49.374;8.452;2022-12-24T04:17:06;11.59;99.99
13496;DHT22;6820;49.374;8.452;2022-12-24T04:21:08;11.62;99.99
13496;DHT22;6820;49.374;8.452;2022-12-24T04:25:11;11.62;99.99
13496;DHT22;6820;49.374;8.452;2022-12-24T04:29:12;11.62;99.99
13496;DHT22;6820;49.374;8.452;2022-12-24T04:33:14;11.60;99.99
13496;DHT22;6820;49.374;8.452;2022-12-24T04:37:16;11.59;99.99
13496;DHT22;6820;49.374;8.452;2022-12-24T04:41:18;11.51;99.99
13496;DHT22;6820;49.374;8.452;2022-12-24T04:45:24;11.54;99.99
13496;DHT22;6820;49.374;8.452;2022-12-24T04:49:26;11.54;99.99
13496;DHT22;6820;49.374;8.452;2022-12-24T04:53:28;11.56;99.99
13496;DHT22;6820;49.374;8.452;2022-12-24T04:57:31;11.57;99.99
13496;DHT22;6820;49.374;8.452;2022-12-24T05:01:33;11.56;99.99
13496;DHT22;6820;49.374;8.452;2022-12-24T05:05:35;11.53;99.99
13496;DHT22;6820;49.374;8.452;2022-12-24T05:09:37;11.48;99.99
13496;DHT22;6820;49.374;8.452;2022-12-24T05:13:39;11.42;99.99
13496;DHT22;6820;49.374;8.452;2022-12-24T05:17:47;11.36;99.99
13496;DHT22;6820;49.374;8.452;2022-12-24T05:21:49;11.31;99.99
13496;DHT22;6820;49.374;8.452;2022-12-24T05:26:13;11.26;99.99
13496;DHT22;6820;49.374;8.452;2022-12-24T05:30:22;11.23;99.99
13496;DHT22;6820;49.374;8.452;2022-12-24T05:34:24;11.23;99.99
13496;DHT22;6820;49.374;8.452;2022-12-24T05:38:25;11.24;99.99
13496;DHT22;6820;49.374;8.452;2022-12-24T05:42:27;11.23;99.99
13496;DHT22;6820;49.374;8.452;2022-12-24T05:46:29;11.24;99.99
13496;DHT22;6820;49.374;8.452;2022-12-24T05:50:30;11.28;99.99
13496;DHT22;6820;49.374;8.452;2022-12-24T05:54:38;11.28;99.99
13496;DHT22;6820;49.374;8.452;2022-12-24T05:58:40;11.30;99.99
13496;DHT22;6820;49.374;8.452;2022-12-24T06:02:42;11.33;99.99
13496;DHT22;6820;49.374;8.452;2022-12-24T06:06:44;11.35;99.99
13496;DHT22;6820;49.374;8.452;2022-12-24T06:10:46;11.33;99.99
13496;DHT22;6820;49.374;8.452;2022-12-24T06:14:47;11.33;99.99
13496;DHT22;6820;49.374;8.452;2022-12-24T06:18:49;11.27;99.99
13496;DHT22;6820;49.374;8.452;2022-12-24T06:22:50;11.27;99.99
13496;DHT22;6820;49.374;8.452;2022-12-24T06:26:52;11.24;99.99
13496;DHT22;6820;49.374;8.452;2022-12-24T06:30:54;11.27;99.99
13496;DHT22;6820;49.374;8.452;2022-12-24T06:35:02;11.27;99.99
13496;DHT22;6820;49.374;8.452;2022-12-24T06:39:04;11.27;99.99
13496;DHT22;6820;49.374;8.452;2022-12-24T06:43:06;11.26;99.99
13496;DHT22;6820;49.374;8.452;2022-12-24T06:47:08;11.27;99.99
13496;DHT22;6820;49.374;8.452;2022-12-24T06:51:09;11.27;99.99
13496;DHT22;6820;49.374;8.452;2022-12-24T06:55:12;11.28;99.99
13496;DHT22;6820;49.374;8.452;2022-12-24T06:59:14;11.30;99.99
13496;DHT22;6820;49.374;8.452;2022-12-24T07:03:15;11.33;99.99
13496;DHT22;6820;49.374;8.452;2022-12-24T07:07:17;11.33;99.99
13496;DHT22;6820;49.374;8.452;2022-12-24T07:11:19;11.38;99.99
13496;DHT22;6820;49.374;8.452;2022-12-24T07:15:21;11.39;99.99
13496;DHT22;6820;49.374;8.452;2022-12-24T07:19:23;11.39;99.99
13496;DHT22;6820;49.374;8.452;2022-12-24T07:23:24;11.39;99.99
13496;DHT22;6820;49.374;8.452;2022-12-24T07:27:26;11.38;99.99
13496;DHT22;6820;49.374;8.452;2022-12-24T07:31:28;11.39;99.99
13496;DHT22;6820;49.374;8.452;2022-12-24T07:35:29;11.38;99.99
13496;DHT22;6820;49.374;8.452;2022-12-24T07:39:31;11.39;99.99
13496;DHT22;6820;49.374;8.452;2022-12-24T07:43:33;11.39;99.99
13496;DHT22;6820;49.374;8.452;2022-12-24T07:47:34;11.42;99.99
13496;DHT22;6820;49.374;8.452;2022-12-24T07:51:36;11.42;99.99
13496;DHT22;6820;49.374;8.452;2022-12-24T07:55:38;11.41;99.99
13496;DHT22;6820;49.374;8.452;2022-12-24T07:59:39;11.39;99.99
13496;DHT22;6820;49.374;8.452;2022-12-24T08:03:41;11.39;99.99
13496;DHT22;6820;49.374;8.452;2022-12-24T08:07:43;11.41;99.99
13496;DHT22;6820;49.374;8.452;2022-12-24T08:11:44;11.41;99.99
13496;DHT22;6820;49.374;8.452;2022-12-24T08:15:52;11.44;99.99
13496;DHT22;6820;49.374;8.452;2022-12-24T08:19:54;11.46;99.99
13496;DHT22;6820;49.374;8.452;2022-12-24T08:23:56;11.51;99.99
13496;DHT22;6820;49.374;8.452;2022-12-24T08:27:57;11.57;99.99
13496;DHT22;6820;49.374;8.452;2022-12-24T08:31:59;11.57;99.99
13496;DHT22;6820;49.374;8.452;2022-12-24T08:36:01;11.60;99.99
13496;DHT22;6820;49.374;8.452;2022-12-24T08:40:03;11.60;99.99
13496;DHT22;6820;49.374;8.452;2022-12-24T08:44:05;11.60;99.99
13496;DHT22;6820;49.374;8.452;2022-12-24T08:48:07;11.62;99.99
13496;DHT22;6820;49.374;8.452;2022-12-24T08:52:09;11.63;99.99
13496;DHT22;6820;49.374;8.452;2022-12-24T08:56:11;11.64;99.99
13496;DHT22;6820;49.374;8.452;2022-12-24T09:00:13;11.63;99.99
13496;DHT22;6820;49.374;8.452;2022-12-24T09:04:15;11.62;99.99
13496;DHT22;6820;49.374;8.452;2022-12-24T09:08:17;11.62;99.99
13496;DHT22;6820;49.374;8.452;2022-12-24T09:12:18;11.62;99.99
13496;DHT22;6820;49.374;8.452;2022-12-24T09:16:20;11.59;99.99
13496;DHT22;6820;49.374;8.452;2022-12-24T09:20:21;11.60;99.99
13496;DHT22;6820;49.374;8.452;2022-12-24T09:24:23;11.60;99.99
13496;DHT22;6820;49.374;8.452;2022-12-24T09:28:25;11.66;99.99
13496;DHT22;6820;49.374;8.452;2022-12-24T09:32:27;11.74;99.99
13496;DHT22;6820;49.374;8.452;2022-12-24T09:36:28;11.79;99.99
13496;DHT22;6820;49.374;8.452;2022-12-24T09:40:32;11.84;99.99
13496;DHT22;6820;49.374;8.452;2022-12-24T09:49:03;12.05;99.99
13496;DHT22;6820;49.374;8.452;2022-12-24T09:53:15;12.16;99.99
13496;DHT22;6820;49.374;8.452;2022-12-24T09:57:31;12.25;99.99
13496;DHT22;6820;49.374;8.452;2022-12-24T10:01:37;12.34;99.99
13496;DHT22;6820;49.374;8.452;2022-12-24T10:05:40;12.41;99.99
13496;DHT22;6820;49.374;8.452;2022-12-24T10:27:27;12.92;99.99
13496;DHT22;6820;49.374;8.452;2022-12-24T10:31:34;12.96;99.99
13496;DHT22;6820;49.374;8.452;2022-12-24T10:35:38;13.01;99.99
13496;DHT22;6820;49.374;8.452;2022-12-24T10:39:46;13.09;99.99
13496;DHT22;6820;49.374;8.452;2022-12-24T10:43:48;13.25;99.99
13496;DHT22;6820;49.374;8.452;2022-12-24T10:47:54;13.31;99.99
13496;DHT22;6820;49.374;8.452;2022-12-24T10:52:10;13.29;99.99
13496;DHT22;6820;49.374;8.452;2022-12-24T10:56:15;13.27;99.99
13496;DHT22;6820;49.374;8.452;2022-12-24T11:00:19;13.17;99.99
13496;DHT22;6820;49.374;8.452;2022-12-24T11:04:24;13.17;99.99
13496;DHT22;6820;49.374;8.452;2022-12-24T11:08:27;13.16;99.99
13496;DHT22;6820;49.374;8.452;2022-12-24T11:12:36;13.17;99.99
13496;DHT22;6820;49.374;8.452;2022-12-24T11:16:45;13.22;99.99
13496;DHT22;6820;49.374;8.452;2022-12-24T11:20:50;13.14;99.99
13496;DHT22;6820;49.374;8.452;2022-12-24T11:25:06;13.07;99.99
13496;DHT22;6820;49.374;8.452;2022-12-24T11:29:21;13.06;99.99
13496;DHT22;6820;49.374;8.452;2022-12-24T11:33:27;13.06;99.99
13496;DHT22;6820;49.374;8.452;2022-12-24T11:37:30;13.10;99.99
13496;DHT22;6820;49.374;8.452;2022-12-24T11:41:35;13.13;99.99
13496;DHT22;6820;49.374;8.452;2022-12-24T11:45:38;13.19;99.99
13496;DHT22;6820;49.374;8.452;2022-12-24T11:49:39;13.24;99.99
13496;DHT22;6820;49.374;8.452;2022-12-24T11:57:51;13.41;99.99
13496;DHT22;6820;49.374;8.452;2022-12-24T12:02:03;13.41;99.99
13496;DHT22;6820;49.374;8.452;2022-12-24T12:10:38;13.44;99.99
13496;DHT22;6820;49.374;8.452;2022-12-24T12:18:49;13.53;99.99
13496;DHT22;6820;49.374;8.452;2022-12-24T12:23:12;13.57;99.99
13496;DHT22;6820;49.374;8.452;2022-12-24T12:27:24;13.55;99.99
13496;DHT22;6820;49.374;8.452;2022-12-24T12:31:35;13.57;99.99
13496;DHT22;6820;49.374;8.452;2022-12-24T12:35:40;13.59;99.99
13496;DHT22;6820;49.374;8.452;2022-12-24T12:39:44;13.61;99.99
13496;DHT22;6820;49.374;8.452;2022-12-24T12:52:49;13.75;99.99
13496;DHT22;6820;49.374;8.452;2022-12-24T12:57:10;13.69;99.99
13496;DHT22;6820;49.374;8.452;2022-12-24T13:01:23;13.59;99.99
13496;DHT22;6820;49.374;8.452;2022-12-24T13:09:56;13.54;99.99
13496;DHT22;6820;49.374;8.452;2022-12-24T13:18:41;13.41;99.99
13496;DHT22;6820;49.374;8.452;2022-12-24T13:22:53;13.38;99.99
13496;DHT22;6820;49.374;8.452;2022-12-24T13:39:19;13.04;99.99
13496;DHT22;6820;49.374;8.452;2022-12-24T13:43:21;12.95;99.99
13496;DHT22;6820;49.374;8.452;2022-12-24T13:47:22;12.91;99.99
13496;DHT22;6820;49.374;8.452;2022-12-24T13:51:33;12.88;99.99
13496;DHT22;6820;49.374;8.452;2022-12-24T13:55:34;12.79;99.99
13496;DHT22;6820;49.374;8.452;2022-12-24T13:59:36;12.79;99.99
13496;DHT22;6820;49.374;8.452;2022-12-24T14:03:46;12.74;99.99
13496;DHT22;6820;49.374;8.452;2022-12-24T14:07:51;12.76;99.99
13496;DHT22;6820;49.374;8.452;2022-12-24T14:16:01;12.81;99.99
13496;DHT22;6820;49.374;8.452;2022-12-24T14:20:06;12.81;99.99
13496;DHT22;6820;49.374;8.452;2022-12-24T14:24:13;12.87;99.99
13496;DHT22;6820;49.374;8.452;2022-12-24T14:28:18;12.92;99.99
13496;DHT22;6820;49.374;8.452;2022-12-24T14:32:37;12.94;99.99
13496;DHT22;6820;49.374;8.452;2022-12-24T14:36:41;12.91;99.99
13496;DHT22;6820;49.374;8.452;2022-12-24T14:40:56;12.88;99.99
13496;DHT22;6820;49.374;8.452;2022-12-24T14:45:23;12.81;99.99
13496;DHT22;6820;49.374;8.452;2022-12-24T14:49:38;12.76;99.99
13496;DHT22;6820;49.374;8.452;2022-12-24T14:54:10;12.69;99.99
13496;DHT22;6820;49.374;8.452;2022-12-24T15:06:39;12.49;99.99
13496;DHT22;6820;49.374;8.452;2022-12-24T15:10:44;12.44;99.99
13496;DHT22;6820;49.374;8.452;2022-12-24T15:14:50;12.41;99.99
13496;DHT22;6820;49.374;8.452;2022-12-24T15:19:27;12.36;99.99
13496;DHT22;6820;49.374;8.452;2022-12-24T15:23:29;12.31;99.99
13496;DHT22;6820;49.374;8.452;2022-12-24T15:27:33;12.25;99.99
13496;DHT22;6820;49.374;8.452;2022-12-24T15:31:42;12.22;99.99
13496;DHT22;6820;49.374;8.452;2022-12-24T15:35:51;12.19;99.99
13496;DHT22;6820;49.374;8.452;2022-12-24T15:39:56;12.15;99.99
13496;DHT22;6820;49.374;8.452;2022-12-24T15:44:00;12.11;99.99
13496;DHT22;6820;49.374;8.452;2022-12-24T15:48:08;12.11;99.99
13496;DHT22;6820;49.374;8.452;2022-12-24T15:52:11;12.07;99.99
13496;DHT22;6820;49.374;8.452;2022-12-24T16:00:34;12.03;99.99
13496;DHT22;6820;49.374;8.452;2022-12-24T16:04:35;12.03;99.99
13496;DHT22;6820;49.374;8.452;2022-12-24T16:08:38;12.01;99.99
13496;DHT22;6820;49.374;8.452;2022-12-24T16:12:41;11.98;99.99
13496;DHT22;6820;49.374;8.452;2022-12-24T16:16:45;11.97;99.99
13496;DHT22;6820;49.374;8.452;2022-12-24T16:20:49;11.97;99.99
13496;DHT22;6820;49.374;8.452;2022-12-24T16:24:51;11.96;99.99
13496;DHT22;6820;49.374;8.452;2022-12-24T16:28:55;11.93;99.99
13496;DHT22;6820;49.374;8.452;2022-12-24T16:32:57;11.85;99.99
13496;DHT22;6820;49.374;8.452;2022-12-24T16:36:59;11.78;99.99
13496;DHT22;6820;49.374;8.452;2022-12-24T16:41:01;11.75;99.99
13496;DHT22;6820;49.374;8.452;2022-12-24T16:45:03;11.72;99.99
13496;DHT22;6820;49.374;8.452;2022-12-24T16:49:05;11.69;99.99
13496;DHT22;6820;49.374;8.452;2022-12-24T16:53:07;11.66;99.99
13496;DHT22;6820;49.374;8.452;2022-12-24T16:57:18;11.62;99.99
13496;DHT22;6820;49.374;8.452;2022-12-24T17:01:19;11.59;99.99
13496;DHT22;6820;49.374;8.452;2022-12-24T17:05:21;11.54;99.99
13496;DHT22;6820;49.374;8.452;2022-12-24T17:09:24;11.53;99.99
13496;DHT22;6820;49.374;8.452;2022-12-24T17:13:26;11.48;99.99
13496;DHT22;6820;49.374;8.452;2022-12-24T17:17:28;11.44;99.99
13496;DHT22;6820;49.374;8.452;2022-12-24T17:21:30;11.41;99.99
13496;DHT22;6820;49.374;8.452;2022-12-24T17:25:34;11.42;99.99
13496;DHT22;6820;49.374;8.452;2022-12-24T17:29:36;11.42;99.99
13496;DHT22;6820;49.374;8.452;2022-12-24T17:33:37;11.42;99.99
13496;DHT22;6820;49.374;8.452;2022-12-24T17:37:39;11.44;99.99
13496;DHT22;6820;49.374;8.452;2022-12-24T17:41:41;11.45;99.99
13496;DHT22;6820;49.374;8.452;2022-12-24T17:45:42;11.45;99.99
13496;DHT22;6820;49.374;8.452;2022-12-24T17:49:44;11.45;99.99
13496;DHT22;6820;49.374;8.452;2022-12-24T17:53:46;11.42;99.99
13496;DHT22;6820;49.374;8.452;2022-12-24T17:57:48;11.39;99.99
13496;DHT22;6820;49.374;8.452;2022-12-24T18:01:50;11.36;99.99
13496;DHT22;6820;49.374;8.452;2022-12-24T18:05:51;11.35;99.99
13496;DHT22;6820;49.374;8.452;2022-12-24T18:09:53;11.36;99.99
13496;DHT22;6820;49.374;8.452;2022-12-24T18:13:55;11.31;99.99
13496;DHT22;6820;49.374;8.452;2022-12-24T18:17:57;11.27;99.99
13496;DHT22;6820;49.374;8.452;2022-12-24T18:21:59;11.23;99.99
13496;DHT22;6820;49.374;8.452;2022-12-24T18:26:01;11.21;99.99
13496;DHT22;6820;49.374;8.452;2022-12-24T18:30:05;11.17;99.99
13496;DHT22;6820;49.374;8.452;2022-12-24T18:34:08;11.13;99.99
13496;DHT22;6820;49.374;8.452;2022-12-24T18:38:12;11.12;99.99
13496;DHT22;6820;49.374;8.452;2022-12-24T18:42:14;11.12;99.99
13496;DHT22;6820;49.374;8.452;2022-12-24T18:46:17;11.11;99.99
13496;DHT22;6820;49.374;8.452;2022-12-24T18:50:20;11.11;99.99
13496;DHT22;6820;49.374;8.452;2022-12-24T18:54:22;11.08;99.99
13496;DHT22;6820;49.374;8.452;2022-12-24T18:58:23;11.09;99.99
13496;DHT22;6820;49.374;8.452;2022-12-24T19:02:25;11.09;99.99
13496;DHT22;6820;49.374;8.452;2022-12-24T19:06:27;11.09;99.99
13496;DHT22;6820;49.374;8.452;2022-12-24T19:10:28;11.11;99.99
13496;DHT22;6820;49.374;8.452;2022-12-24T19:14:30;11.11;99.99
13496;DHT22;6820;49.374;8.452;2022-12-24T19:18:32;11.12;99.99
13496;DHT22;6820;49.374;8.452;2022-12-24T19:22:34;11.13;99.99
13496;DHT22;6820;49.374;8.452;2022-12-24T19:26:35;11.17;99.99
13496;DHT22;6820;49.374;8.452;2022-12-24T19:30:38;11.21;99.99
13496;DHT22;6820;49.374;8.452;2022-12-24T19:34:43;11.24;99.99
13496;DHT22;6820;49.374;8.452;2022-12-24T19:38:44;11.26;99.99
13496;DHT22;6820;49.374;8.452;2022-12-24T19:42:46;11.27;99.99
13496;DHT22;6820;49.374;8.452;2022-12-24T19:46:50;11.30;99.99
13496;DHT22;6820;49.374;8.452;2022-12-24T19:50:57;11.28;99.99
13496;DHT22;6820;49.374;8.452;2022-12-24T19:55:00;11.26;99.99
13496;DHT22;6820;49.374;8.452;2022-12-24T19:59:02;11.24;99.99
13496;DHT22;6820;49.374;8.452;2022-12-24T20:03:04;11.20;99.99
13496;DHT22;6820;49.374;8.452;2022-12-24T20:07:05;11.16;99.99
13496;DHT22;6820;49.374;8.452;2022-12-24T20:11:08;11.16;99.99
13496;DHT22;6820;49.374;8.452;2022-12-24T20:15:12;11.12;99.99
13496;DHT22;6820;49.374;8.452;2022-12-24T20:19:14;11.09;99.99
13496;DHT22;6820;49.374;8.452;2022-12-24T20:23:15;11.06;99.99
13496;DHT22;6820;49.374;8.452;2022-12-24T20:27:17;11.06;99.99
13496;DHT22;6820;49.374;8.452;2022-12-24T20:31:20;11.08;99.99
13496;DHT22;6820;49.374;8.452;2022-12-24T20:35:23;11.06;99.99
13496;DHT22;6820;49.374;8.452;2022-12-24T20:39:25;11.05;99.99
13496;DHT22;6820;49.374;8.452;2022-12-24T20:43:26;11.05;99.99
13496;DHT22;6820;49.374;8.452;2022-12-24T20:47:35;11.08;99.99
13496;DHT22;6820;49.374;8.452;2022-12-24T20:51:37;11.06;99.99
13496;DHT22;6820;49.374;8.452;2022-12-24T20:55:39;11.05;99.99
13496;DHT22;6820;49.374;8.452;2022-12-24T20:59:40;11.03;99.99
13496;DHT22;6820;49.374;8.452;2022-12-24T21:03:43;11.02;99.99
13496;DHT22;6820;49.374;8.452;2022-12-24T21:07:45;11.01;99.99
13496;DHT22;6820;49.374;8.452;2022-12-24T21:11:48;10.95;99.99
13496;DHT22;6820;49.374;8.452;2022-12-24T21:15:49;10.94;99.99
13496;DHT22;6820;49.374;8.452;2022-12-24T21:19:51;10.91;99.99
13496;DHT22;6820;49.374;8.452;2022-12-24T21:23:52;10.90;99.99
13496;DHT22;6820;49.374;8.452;2022-12-24T21:27:54;10.88;99.99
13496;DHT22;6820;49.374;8.452;2022-12-24T21:31:56;10.83;99.99
13496;DHT22;6820;49.374;8.452;2022-12-24T21:35:57;10.80;99.99
13496;DHT22;6820;49.374;8.452;2022-12-24T21:39:59;10.78;99.99
13496;DHT22;6820;49.374;8.452;2022-12-24T21:44:01;10.78;99.99
13496;DHT22;6820;49.374;8.452;2022-12-24T21:48:03;10.80;99.99
13496;DHT22;6820;49.374;8.452;2022-12-24T21:52:24;10.81;99.99
13496;DHT22;6820;49.374;8.452;2022-12-24T21:56:26;10.83;99.99
13496;DHT22;6820;49.374;8.452;2022-12-24T22:00:27;10.86;99.99
13496;DHT22;6820;49.374;8.452;2022-12-24T22:04:31;10.88;99.99
13496;DHT22;6820;49.374;8.452;2022-12-24T22:08:32;10.87;99.99
13496;DHT22;6820;49.374;8.452;2022-12-24T22:12:53;10.86;99.99
13496;DHT22;6820;49.374;8.452;2022-12-24T22:16:55;10.88;99.99
13496;DHT22;6820;49.374;8.452;2022-12-24T22:20:56;10.88;99.99
13496;DHT22;6820;49.374;8.452;2022-12-24T22:25:02;10.88;99.99
13496;DHT22;6820;49.374;8.452;2022-12-24T22:29:04;10.90;99.99
13496;DHT22;6820;49.374;8.452;2022-12-24T22:33:07;10.93;99.99
13496;DHT22;6820;49.374;8.452;2022-12-24T22:37:09;10.94;99.99
13496;DHT22;6820;49.374;8.452;2022-12-24T22:41:11;10.91;99.99
13496;DHT22;6820;49.374;8.452;2022-12-24T22:45:14;10.91;99.99
13496;DHT22;6820;49.374;8.452;2022-12-24T22:49:22;10.87;99.99
13496;DHT22;6820;49.374;8.452;2022-12-24T22:53:23;10.86;99.99
13496;DHT22;6820;49.374;8.452;2022-12-24T22:57:25;10.83;99.99
13496;DHT22;6820;49.374;8.452;2022-12-24T23:01:34;10.78;99.99
13496;DHT22;6820;49.374;8.452;2022-12-24T23:05:37;10.73;99.99
13496;DHT22;6820;49.374;8.452;2022-12-24T23:09:39;10.70;99.99
13496;DHT22;6820;49.374;8.452;2022-12-24T23:13:41;10.69;99.99
13496;DHT22;6820;49.374;8.452;2022-12-24T23:18:05;10.70;99.99
13496;DHT22;6820;49.374;8.452;2022-12-24T23:22:08;10.69;99.99
13496;DHT22;6820;49.374;8.452;2022-12-24T23:26:11;10.66;99.99
13496;DHT22;6820;49.374;8.452;2022-12-24T23:30:15;10.66;99.99
13496;DHT22;6820;49.374;8.452;2022-12-24T23:34:17;10.65;99.99
13496;DHT22;6820;49.374;8.452;2022-12-24T23:38:19;10.65;99.99
13496;DHT22;6820;49.374;8.452;2022-12-24T23:42:20;10.66;99.99
13496;DHT22;6820;49.374;8.452;2022-12-24T23:46:22;10.69;99.99
13496;DHT22;6820;49.374;8.452;2022-12-24T23:50:24;10.72;99.99
13496;DHT22;6820;49.374;8.452;2022-12-24T23:54:25;10.75;99.99
13496;DHT22;6820;49.374;8.452;2022-12-24T23:58:27;10.78;99.99
